sensor_id;sensor_type;location;lat;lon;timestamp;temperature;humidity
69054;DHT22;56125;52.242;4.756;2023-02-26T00:02:47;18.10;39.20
69054;DHT22;56125;52.242;4.756;2023-02-26T00:07:49;18.10;39.00
69054;DHT22;56125;52.242;4.756;2023-02-26T00:12:50;18.20;39.00
69054;DHT22;56125;52.242;4.756;2023-02-26T00:23:01;18.20;38.90
69054;DHT22;56125;52.242;4.756;2023-02-26T00:28:03;18.20;39.00
69054;DHT22;56125;52.242;4.756;2023-02-26T00:33:04;18.30;38.70
69054;DHT22;56125;52.242;4.756;2023-02-26T00:38:06;18.30;38.60
69054;DHT22;56125;52.242;4.756;2023-02-26T00:43:15;18.30;38.50
69054;DHT22;56125;52.242;4.756;2023-02-26T00:48:39;18.30;38.60
69054;DHT22;56125;52.242;4.756;2023-02-26T00:54:12;18.30;38.30
69054;DHT22;56125;52.242;4.756;2023-02-26T00:59:17;18.30;38.30
69054;DHT22;56125;52.242;4.756;2023-02-26T01:04:21;18.20;38.80
69054;DHT22;56125;52.242;4.756;2023-02-26T01:09:33;18.20;38.60
69054;DHT22;56125;52.242;4.756;2023-02-26T01:14:35;18.20;38.50
69054;DHT22;56125;52.242;4.756;2023-02-26T01:24:48;18.10;38.10
69054;DHT22;56125;52.242;4.756;2023-02-26T01:29:52;18.10;38.70
69054;DHT22;56125;52.242;4.756;2023-02-26T01:35:04;18.00;38.20
69054;DHT22;56125;52.242;4.756;2023-02-26T01:40:55;18.00;38.20
69054;DHT22;56125;52.242;4.756;2023-02-26T01:46:21;18.00;38.10
69054;DHT22;56125;52.242;4.756;2023-02-26T01:52:00;18.00;38.00
69054;DHT22;56125;52.242;4.756;2023-02-26T01:57:08;18.00;38.20
69054;DHT22;56125;52.242;4.756;2023-02-26T02:02:13;18.00;38.50
69054;DHT22;56125;52.242;4.756;2023-02-26T02:07:17;18.00;37.70
69054;DHT22;56125;52.242;4.756;2023-02-26T02:23:51;18.00;37.80
69054;DHT22;56125;52.242;4.756;2023-02-26T02:34:33;18.00;38.20
69054;DHT22;56125;52.242;4.756;2023-02-26T02:40:00;18.10;37.70
69054;DHT22;56125;52.242;4.756;2023-02-26T02:45:08;18.00;37.40
69054;DHT22;56125;52.242;4.756;2023-02-26T02:50:37;18.00;38.20
69054;DHT22;56125;52.242;4.756;2023-02-26T02:55:49;18.00;37.40
69054;DHT22;56125;52.242;4.756;2023-02-26T03:00:55;18.00;37.60
69054;DHT22;56125;52.242;4.756;2023-02-26T03:05:56;18.00;37.40
69054;DHT22;56125;52.242;4.756;2023-02-26T03:10:57;17.90;37.90
69054;DHT22;56125;52.242;4.756;2023-02-26T03:16:09;17.90;37.00
69054;DHT22;56125;52.242;4.756;2023-02-26T03:21:25;17.90;37.50
69054;DHT22;56125;52.242;4.756;2023-02-26T03:26:34;17.90;37.20
69054;DHT22;56125;52.242;4.756;2023-02-26T03:31:52;17.90;37.10
69054;DHT22;56125;52.242;4.756;2023-02-26T03:36:58;17.80;37.50
69054;DHT22;56125;52.242;4.756;2023-02-26T03:47:11;17.90;37.00
69054;DHT22;56125;52.242;4.756;2023-02-26T03:52:14;17.80;37.10
69054;DHT22;56125;52.242;4.756;2023-02-26T03:57:15;17.80;37.50
69054;DHT22;56125;52.242;4.756;2023-02-26T04:02:21;17.80;37.40
69054;DHT22;56125;52.242;4.756;2023-02-26T04:07:23;17.80;37.40
69054;DHT22;56125;52.242;4.756;2023-02-26T04:12:26;17.70;36.70
69054;DHT22;56125;52.242;4.756;2023-02-26T04:17:28;17.80;37.00
69054;DHT22;56125;52.242;4.756;2023-02-26T04:22:29;17.90;37.60
69054;DHT22;56125;52.242;4.756;2023-02-26T04:27:30;17.80;37.20
69054;DHT22;56125;52.242;4.756;2023-02-26T04:32:31;17.80;37.10
69054;DHT22;56125;52.242;4.756;2023-02-26T04:37:32;17.80;36.80
69054;DHT22;56125;52.242;4.756;2023-02-26T04:42:33;17.80;37.20
69054;DHT22;56125;52.242;4.756;2023-02-26T04:47:35;17.80;37.00
69054;DHT22;56125;52.242;4.756;2023-02-26T04:52:36;17.80;37.20
69054;DHT22;56125;52.242;4.756;2023-02-26T04:57:37;17.80;36.70
69054;DHT22;56125;52.242;4.756;2023-02-26T05:02:38;17.80;37.30
69054;DHT22;56125;52.242;4.756;2023-02-26T05:07:39;18.00;36.90
69054;DHT22;56125;52.242;4.756;2023-02-26T05:12:40;17.80;36.70
69054;DHT22;56125;52.242;4.756;2023-02-26T05:17:41;17.80;36.70
69054;DHT22;56125;52.242;4.756;2023-02-26T05:22:42;17.80;36.90
69054;DHT22;56125;52.242;4.756;2023-02-26T05:27:43;17.80;36.80
69054;DHT22;56125;52.242;4.756;2023-02-26T05:32:44;17.80;37.10
69054;DHT22;56125;52.242;4.756;2023-02-26T05:37:45;17.70;36.80
69054;DHT22;56125;52.242;4.756;2023-02-26T05:42:46;17.70;36.30
69054;DHT22;56125;52.242;4.756;2023-02-26T05:47:47;17.70;36.90
69054;DHT22;56125;52.242;4.756;2023-02-26T05:52:48;17.70;36.70
69054;DHT22;56125;52.242;4.756;2023-02-26T05:57:49;17.70;37.00
69054;DHT22;56125;52.242;4.756;2023-02-26T06:02:50;17.80;36.40
69054;DHT22;56125;52.242;4.756;2023-02-26T06:07:51;17.70;36.70
69054;DHT22;56125;52.242;4.756;2023-02-26T06:12:52;17.70;36.30
69054;DHT22;56125;52.242;4.756;2023-02-26T06:17:54;17.70;36.10
69054;DHT22;56125;52.242;4.756;2023-02-26T06:22:55;17.70;36.00
69054;DHT22;56125;52.242;4.756;2023-02-26T06:27:56;17.40;35.50
69054;DHT22;56125;52.242;4.756;2023-02-26T06:32:57;17.70;35.80
69054;DHT22;56125;52.242;4.756;2023-02-26T06:37:58;17.60;36.10
69054;DHT22;56125;52.242;4.756;2023-02-26T06:42:59;17.70;35.80
69054;DHT22;56125;52.242;4.756;2023-02-26T06:48:00;17.70;35.90
69054;DHT22;56125;52.242;4.756;2023-02-26T06:53:02;17.60;35.50
69054;DHT22;56125;52.242;4.756;2023-02-26T06:58:02;17.60;35.30
69054;DHT22;56125;52.242;4.756;2023-02-26T07:03:04;17.60;35.50
69054;DHT22;56125;52.242;4.756;2023-02-26T07:08:05;17.60;35.40
69054;DHT22;56125;52.242;4.756;2023-02-26T07:13:06;17.60;35.40
69054;DHT22;56125;52.242;4.756;2023-02-26T07:18:07;18.10;35.90
69054;DHT22;56125;52.242;4.756;2023-02-26T07:23:08;17.60;36.50
69054;DHT22;56125;52.242;4.756;2023-02-26T07:28:09;17.60;36.60
69054;DHT22;56125;52.242;4.756;2023-02-26T07:33:10;17.60;36.20
69054;DHT22;56125;52.242;4.756;2023-02-26T07:38:11;17.60;36.10
69054;DHT22;56125;52.242;4.756;2023-02-26T07:43:12;17.50;35.60
69054;DHT22;56125;52.242;4.756;2023-02-26T07:48:13;17.60;35.60
69054;DHT22;56125;52.242;4.756;2023-02-26T07:53:14;17.60;35.10
69054;DHT22;56125;52.242;4.756;2023-02-26T07:58:17;17.60;34.80
69054;DHT22;56125;52.242;4.756;2023-02-26T08:03:18;17.70;34.80
69054;DHT22;56125;52.242;4.756;2023-02-26T08:08:19;17.90;34.90
69054;DHT22;56125;52.242;4.756;2023-02-26T08:13:20;18.00;34.60
69054;DHT22;56125;52.242;4.756;2023-02-26T08:18:21;16.80;33.80
69054;DHT22;56125;52.242;4.756;2023-02-26T08:23:23;17.50;33.90
69054;DHT22;56125;52.242;4.756;2023-02-26T08:28:24;17.50;34.10
69054;DHT22;56125;52.242;4.756;2023-02-26T08:33:25;17.50;34.30
69054;DHT22;56125;52.242;4.756;2023-02-26T08:38:27;17.50;34.20
69054;DHT22;56125;52.242;4.756;2023-02-26T08:43:28;17.50;34.00
69054;DHT22;56125;52.242;4.756;2023-02-26T08:48:29;17.60;34.30
69054;DHT22;56125;52.242;4.756;2023-02-26T08:53:30;17.50;34.00
69054;DHT22;56125;52.242;4.756;2023-02-26T08:58:31;17.40;33.90
69054;DHT22;56125;52.242;4.756;2023-02-26T09:03:32;17.50;34.10
69054;DHT22;56125;52.242;4.756;2023-02-26T09:08:33;17.50;34.00
69054;DHT22;56125;52.242;4.756;2023-02-26T09:13:34;17.90;34.20
69054;DHT22;56125;52.242;4.756;2023-02-26T09:18:36;17.50;33.80
69054;DHT22;56125;52.242;4.756;2023-02-26T09:23:37;17.40;33.50
69054;DHT22;56125;52.242;4.756;2023-02-26T09:28:38;17.40;33.90
69054;DHT22;56125;52.242;4.756;2023-02-26T09:33:39;17.40;33.90
69054;DHT22;56125;52.242;4.756;2023-02-26T09:38:40;17.40;33.90
69054;DHT22;56125;52.242;4.756;2023-02-26T09:43:55;17.40;34.10
69054;DHT22;56125;52.242;4.756;2023-02-26T09:54:28;17.40;34.30
69054;DHT22;56125;52.242;4.756;2023-02-26T09:59:32;17.00;34.70
69054;DHT22;56125;52.242;4.756;2023-02-26T10:10:34;17.40;35.20
69054;DHT22;56125;52.242;4.756;2023-02-26T10:15:41;17.40;35.50
69054;DHT22;56125;52.242;4.756;2023-02-26T10:20:53;17.40;35.70
69054;DHT22;56125;52.242;4.756;2023-02-26T10:26:01;17.40;35.80
69054;DHT22;56125;52.242;4.756;2023-02-26T10:36:39;17.40;36.00
69054;DHT22;56125;52.242;4.756;2023-02-26T10:41:43;17.40;36.10
69054;DHT22;56125;52.242;4.756;2023-02-26T10:51:56;17.40;36.40
69054;DHT22;56125;52.242;4.756;2023-02-26T10:57:01;17.40;36.50
69054;DHT22;56125;52.242;4.756;2023-02-26T11:02:02;17.50;36.60
69054;DHT22;56125;52.242;4.756;2023-02-26T11:07:04;17.50;36.80
69054;DHT22;56125;52.242;4.756;2023-02-26T11:12:13;17.40;36.50
69054;DHT22;56125;52.242;4.756;2023-02-26T11:17:18;17.50;36.80
69054;DHT22;56125;52.242;4.756;2023-02-26T11:22:25;17.50;36.80
69054;DHT22;56125;52.242;4.756;2023-02-26T11:27:35;17.50;36.80
69054;DHT22;56125;52.242;4.756;2023-02-26T11:32:36;18.30;37.10
69054;DHT22;56125;52.242;4.756;2023-02-26T11:37:40;17.20;36.60
69054;DHT22;56125;52.242;4.756;2023-02-26T11:42:58;17.50;36.70
69054;DHT22;56125;52.242;4.756;2023-02-26T11:48:05;17.50;36.50
69054;DHT22;56125;52.242;4.756;2023-02-26T11:53:19;17.40;36.70
69054;DHT22;56125;52.242;4.756;2023-02-26T11:58:24;17.50;36.50
69054;DHT22;56125;52.242;4.756;2023-02-26T12:03:32;17.50;36.70
69054;DHT22;56125;52.242;4.756;2023-02-26T12:08:35;17.50;36.60
69054;DHT22;56125;52.242;4.756;2023-02-26T12:19:06;17.50;36.50
69054;DHT22;56125;52.242;4.756;2023-02-26T12:35:09;17.50;37.10
69054;DHT22;56125;52.242;4.756;2023-02-26T12:45:46;17.60;38.00
69054;DHT22;56125;52.242;4.756;2023-02-26T12:50:57;17.60;38.50
69054;DHT22;56125;52.242;4.756;2023-02-26T13:12:33;17.90;38.00
69054;DHT22;56125;52.242;4.756;2023-02-26T13:17:53;17.90;38.00
69054;DHT22;56125;52.242;4.756;2023-02-26T13:23:10;17.90;37.60
69054;DHT22;56125;52.242;4.756;2023-02-26T13:33:40;17.80;37.60
69054;DHT22;56125;52.242;4.756;2023-02-26T13:49:22;17.90;37.20
69054;DHT22;56125;52.242;4.756;2023-02-26T13:54:27;17.80;37.20
69054;DHT22;56125;52.242;4.756;2023-02-26T13:59:36;17.40;37.00
69054;DHT22;56125;52.242;4.756;2023-02-26T14:04:50;17.80;37.30
69054;DHT22;56125;52.242;4.756;2023-02-26T14:10:03;17.80;37.20
69054;DHT22;56125;52.242;4.756;2023-02-26T14:15:18;17.80;37.00
69054;DHT22;56125;52.242;4.756;2023-02-26T14:20:27;17.80;37.00
69054;DHT22;56125;52.242;4.756;2023-02-26T14:25:33;17.80;37.00
69054;DHT22;56125;52.242;4.756;2023-02-26T14:30:42;17.80;36.90
69054;DHT22;56125;52.242;4.756;2023-02-26T14:35:49;17.80;37.00
69054;DHT22;56125;52.242;4.756;2023-02-26T14:41:22;17.80;36.90
69054;DHT22;56125;52.242;4.756;2023-02-26T14:46:24;17.80;36.80
69054;DHT22;56125;52.242;4.756;2023-02-26T14:51:41;17.80;36.80
69054;DHT22;56125;52.242;4.756;2023-02-26T15:12:37;17.80;36.60
69054;DHT22;56125;52.242;4.756;2023-02-26T15:23:11;17.70;37.80
69054;DHT22;56125;52.242;4.756;2023-02-26T15:28:27;17.80;37.40
69054;DHT22;56125;52.242;4.756;2023-02-26T15:33:28;17.80;38.10
69054;DHT22;56125;52.242;4.756;2023-02-26T15:38:40;17.90;39.10
69054;DHT22;56125;52.242;4.756;2023-02-26T15:43:51;18.00;39.60
69054;DHT22;56125;52.242;4.756;2023-02-26T15:48:55;18.10;39.60
69054;DHT22;56125;52.242;4.756;2023-02-26T15:53:58;18.10;38.80
69054;DHT22;56125;52.242;4.756;2023-02-26T15:59:10;18.20;39.00
69054;DHT22;56125;52.242;4.756;2023-02-26T16:04:17;18.10;39.00
69054;DHT22;56125;52.242;4.756;2023-02-26T16:09:25;18.10;38.90
69054;DHT22;56125;52.242;4.756;2023-02-26T16:14:32;18.10;38.80
69054;DHT22;56125;52.242;4.756;2023-02-26T16:19:39;17.60;38.40
69054;DHT22;56125;52.242;4.756;2023-02-26T16:24:45;18.00;38.10
69054;DHT22;56125;52.242;4.756;2023-02-26T16:29:52;18.00;37.90
69054;DHT22;56125;52.242;4.756;2023-02-26T16:34:57;18.00;38.00
69054;DHT22;56125;52.242;4.756;2023-02-26T16:40:24;17.70;37.60
69054;DHT22;56125;52.242;4.756;2023-02-26T16:50:36;17.90;37.10
69054;DHT22;56125;52.242;4.756;2023-02-26T16:55:38;17.90;37.30
69054;DHT22;56125;52.242;4.756;2023-02-26T17:00:43;17.90;37.30
69054;DHT22;56125;52.242;4.756;2023-02-26T17:06:01;17.90;37.10
69054;DHT22;56125;52.242;4.756;2023-02-26T17:11:06;17.90;37.10
69054;DHT22;56125;52.242;4.756;2023-02-26T17:16:11;17.80;37.20
69054;DHT22;56125;52.242;4.756;2023-02-26T17:21:12;17.80;36.90
69054;DHT22;56125;52.242;4.756;2023-02-26T17:26:13;17.80;37.00
69054;DHT22;56125;52.242;4.756;2023-02-26T17:31:14;17.70;37.10
69054;DHT22;56125;52.242;4.756;2023-02-26T17:36:16;17.80;37.20
69054;DHT22;56125;52.242;4.756;2023-02-26T17:41:18;17.80;37.30
69054;DHT22;56125;52.242;4.756;2023-02-26T17:46:19;17.80;37.20
69054;DHT22;56125;52.242;4.756;2023-02-26T17:51:20;17.80;37.20
69054;DHT22;56125;52.242;4.756;2023-02-26T17:56:30;17.70;37.30
69054;DHT22;56125;52.242;4.756;2023-02-26T18:01:32;17.70;37.40
69054;DHT22;56125;52.242;4.756;2023-02-26T18:06:35;17.90;37.40
69054;DHT22;56125;52.242;4.756;2023-02-26T18:11:36;17.70;37.50
69054;DHT22;56125;52.242;4.756;2023-02-26T18:16:40;17.70;37.70
69054;DHT22;56125;52.242;4.756;2023-02-26T18:21:42;17.70;38.40
69054;DHT22;56125;52.242;4.756;2023-02-26T18:26:43;17.70;39.00
69054;DHT22;56125;52.242;4.756;2023-02-26T18:31:44;17.70;39.10
69054;DHT22;56125;52.242;4.756;2023-02-26T18:36:45;17.70;39.00
69054;DHT22;56125;52.242;4.756;2023-02-26T18:41:49;17.80;39.20
69054;DHT22;56125;52.242;4.756;2023-02-26T18:46:50;17.80;39.20
69054;DHT22;56125;52.242;4.756;2023-02-26T18:51:51;17.20;39.00
69054;DHT22;56125;52.242;4.756;2023-02-26T18:56:52;17.70;38.90
69054;DHT22;56125;52.242;4.756;2023-02-26T19:01:53;17.80;38.70
69054;DHT22;56125;52.242;4.756;2023-02-26T19:06:54;17.80;38.60
69054;DHT22;56125;52.242;4.756;2023-02-26T19:11:56;17.80;38.70
69054;DHT22;56125;52.242;4.756;2023-02-26T19:16:57;17.80;39.10
69054;DHT22;56125;52.242;4.756;2023-02-26T19:21:58;17.70;38.70
69054;DHT22;56125;52.242;4.756;2023-02-26T19:26:59;17.80;40.10
69054;DHT22;56125;52.242;4.756;2023-02-26T19:32:00;17.80;39.30
69054;DHT22;56125;52.242;4.756;2023-02-26T19:37:01;17.80;38.90
69054;DHT22;56125;52.242;4.756;2023-02-26T19:42:03;17.70;39.10
69054;DHT22;56125;52.242;4.756;2023-02-26T19:47:04;17.70;39.00
69054;DHT22;56125;52.242;4.756;2023-02-26T19:52:06;17.70;39.20
69054;DHT22;56125;52.242;4.756;2023-02-26T19:57:08;17.70;39.10
69054;DHT22;56125;52.242;4.756;2023-02-26T20:02:09;17.70;39.20
69054;DHT22;56125;52.242;4.756;2023-02-26T20:07:10;17.70;39.20
69054;DHT22;56125;52.242;4.756;2023-02-26T20:12:11;17.70;39.10
69054;DHT22;56125;52.242;4.756;2023-02-26T20:17:12;17.70;39.10
69054;DHT22;56125;52.242;4.756;2023-02-26T20:22:13;17.70;39.30
69054;DHT22;56125;52.242;4.756;2023-02-26T20:27:16;17.70;39.10
69054;DHT22;56125;52.242;4.756;2023-02-26T20:32:17;17.70;39.10
69054;DHT22;56125;52.242;4.756;2023-02-26T20:37:18;17.40;38.60
69054;DHT22;56125;52.242;4.756;2023-02-26T20:42:19;17.60;38.70
69054;DHT22;56125;52.242;4.756;2023-02-26T20:47:20;17.70;38.70
69054;DHT22;56125;52.242;4.756;2023-02-26T20:52:21;17.70;38.60
69054;DHT22;56125;52.242;4.756;2023-02-26T20:57:23;17.60;38.70
69054;DHT22;56125;52.242;4.756;2023-02-26T21:02:24;17.90;38.60
69054;DHT22;56125;52.242;4.756;2023-02-26T21:07:25;17.60;38.40
69054;DHT22;56125;52.242;4.756;2023-02-26T21:12:27;17.60;38.40
69054;DHT22;56125;52.242;4.756;2023-02-26T21:17:29;17.60;38.30
69054;DHT22;56125;52.242;4.756;2023-02-26T21:22:31;17.60;38.90
69054;DHT22;56125;52.242;4.756;2023-02-26T21:27:34;17.60;38.10
69054;DHT22;56125;52.242;4.756;2023-02-26T21:32:35;17.80;38.40
69054;DHT22;56125;52.242;4.756;2023-02-26T21:37:36;17.60;38.30
69054;DHT22;56125;52.242;4.756;2023-02-26T21:42:37;17.00;37.70
69054;DHT22;56125;52.242;4.756;2023-02-26T21:47:38;17.70;38.00
69054;DHT22;56125;52.242;4.756;2023-02-26T21:52:39;17.50;38.00
69054;DHT22;56125;52.242;4.756;2023-02-26T21:57:40;17.50;38.00
69054;DHT22;56125;52.242;4.756;2023-02-26T22:02:41;17.60;38.10
69054;DHT22;56125;52.242;4.756;2023-02-26T22:07:42;17.50;38.10
69054;DHT22;56125;52.242;4.756;2023-02-26T22:12:44;17.50;37.90
69054;DHT22;56125;52.242;4.756;2023-02-26T22:17:45;17.50;37.80
69054;DHT22;56125;52.242;4.756;2023-02-26T22:22:46;17.50;38.00
69054;DHT22;56125;52.242;4.756;2023-02-26T22:27:47;17.50;37.80
69054;DHT22;56125;52.242;4.756;2023-02-26T22:32:48;17.50;37.80
69054;DHT22;56125;52.242;4.756;2023-02-26T22:37:49;17.50;37.70
69054;DHT22;56125;52.242;4.756;2023-02-26T22:42:50;17.50;37.80
69054;DHT22;56125;52.242;4.756;2023-02-26T22:47:51;17.50;37.70
69054;DHT22;56125;52.242;4.756;2023-02-26T22:52:52;17.50;37.70
69054;DHT22;56125;52.242;4.756;2023-02-26T22:57:53;17.50;37.60
69054;DHT22;56125;52.242;4.756;2023-02-26T23:02:54;17.50;37.70
69054;DHT22;56125;52.242;4.756;2023-02-26T23:07:55;17.50;38.70
69054;DHT22;56125;52.242;4.756;2023-02-26T23:12:56;17.40;37.60
69054;DHT22;56125;52.242;4.756;2023-02-26T23:17:59;17.40;37.60
69054;DHT22;56125;52.242;4.756;2023-02-26T23:23:00;17.40;37.60
69054;DHT22;56125;52.242;4.756;2023-02-26T23:28:01;17.40;37.50
69054;DHT22;56125;52.242;4.756;2023-02-26T23:33:03;17.40;37.50
69054;DHT22;56125;52.242;4.756;2023-02-26T23:38:05;17.40;37.50
69054;DHT22;56125;52.242;4.756;2023-02-26T23:43:06;17.40;37.40
69054;DHT22;56125;52.242;4.756;2023-02-26T23:48:07;17.30;37.30
69054;DHT22;56125;52.242;4.756;2023-02-26T23:53:08;17.40;37.50
69054;DHT22;56125;52.242;4.756;2023-02-26T23:58:09;17.50;37.30
